Time;durP1;ratioP1;P1;durP2;ratioP2;P2;SDS_P1;SDS_P2;PMS_P1;PMS_P2;Temp;Humidity;BMP_temperature;BMP_pressure;BME280_temperature;BME280_humidity;BME280_pressure;Samples;Min_cycle;Max_cycle;Signal;HPM_P1;HPM_P2
2022/03/05 00:01:09;;;;;;;16.10;7.00;;;;;;;2.31;74.50;100957.47;1961429;73;21034;-65
2022/03/05 00:03:38;;;;;;;14.23;5.70;;;;;;;2.37;74.74;100952.70;1952292;73;21457;-67
2022/03/05 00:06:07;;;;;;;16.23;7.05;;;;;;;2.40;74.62;100953.97;1952589;73;21027;-66
2022/03/05 00:08:35;;;;;;;29.48;15.45;;;;;;;2.43;74.53;100947.03;1952411;73;21026;-66
2022/03/05 00:11:04;;;;;;;33.88;15.80;;;;;;;2.46;74.44;100947.48;1952578;73;20994;-68
2022/03/05 00:13:33;;;;;;;21.95;11.78;;;;;;;2.47;74.34;100950.48;1952600;73;21026;-65
2022/03/05 00:16:01;;;;;;;20.17;9.08;;;;;;;2.48;74.41;100949.64;1952196;73;21089;-66
2022/03/05 00:18:30;;;;;;;15.48;8.75;;;;;;;2.46;74.50;100949.63;1952467;73;21114;-67
2022/03/05 00:20:59;;;;;;;15.93;6.85;;;;;;;2.46;74.80;100952.23;1952332;73;21558;-68
2022/03/05 00:23:28;;;;;;;16.12;7.08;;;;;;;2.43;75.22;100954.83;1952620;73;21116;-66
2022/03/05 00:25:58;;;;;;;19.15;7.20;;;;;;;2.40;75.51;100955.27;1952469;73;21341;-67
2022/03/05 00:28:26;;;;;;;17.15;8.58;;;;;;;2.37;75.76;100953.55;1952387;73;21473;-67
2022/03/05 00:30:58;;;;;;;11.12;5.62;;;;;;;2.34;75.89;100957.89;1952392;73;21011;-67
2022/03/05 00:33:25;;;;;;;11.38;4.37;;;;;;;2.29;75.84;100954.87;1952299;73;21023;-66
2022/03/05 00:35:54;;;;;;;16.95;8.40;;;;;;;2.27;75.88;100957.91;1952364;73;21453;-66
2022/03/05 00:38:23;;;;;;;13.85;6.45;;;;;;;2.27;75.95;100968.30;1952579;73;21026;-67
2022/03/05 00:40:51;;;;;;;14.85;7.00;;;;;;;2.24;75.85;100963.54;1952286;73;21112;-67
2022/03/05 00:43:20;;;;;;;6.12;3.42;;;;;;;2.22;75.88;100954.44;1952360;73;21497;-62
2022/03/05 00:45:49;;;;;;;18.50;8.98;;;;;;;2.23;76.23;100960.50;1952551;73;20987;-62
2022/03/05 00:48:18;;;;;;;17.30;8.20;;;;;;;2.24;76.28;100960.50;1952386;73;21082;-61
2022/03/05 00:50:48;;;;;;;15.32;8.33;;;;;;;2.24;76.43;100952.70;1952323;73;21081;-64
2022/03/05 00:53:18;;;;;;;10.70;6.45;;;;;;;2.22;76.70;100946.65;1952559;73;21078;-62
2022/03/05 00:55:47;;;;;;;19.05;8.23;;;;;;;2.22;76.56;100953.59;1952189;73;21176;-62
2022/03/05 00:58:15;;;;;;;14.68;8.00;;;;;;;2.18;76.40;100970.05;1952444;72;21019;-64
2022/03/05 01:00:44;;;;;;;22.95;9.93;;;;;;;2.14;76.21;100961.39;1942390;73;21511;-64
2022/03/05 01:03:13;;;;;;;24.92;10.58;;;;;;;2.09;76.13;100965.28;1936432;74;21532;-68
2022/03/05 01:05:42;;;;;;;26.40;11.63;;;;;;;2.08;76.17;100962.23;1925769;74;21092;-63
2022/03/05 01:08:12;;;;;;;24.05;11.85;;;;;;;2.06;76.21;100963.11;1916610;75;21026;-67
2022/03/05 01:10:40;;;;;;;18.02;8.70;;;;;;;2.05;76.18;100966.59;1916727;75;21405;-65
2022/03/05 01:13:09;;;;;;;14.10;7.08;;;;;;;2.02;76.12;100964.84;1916882;75;21050;-68
2022/03/05 01:15:38;;;;;;;17.37;8.05;;;;;;;2.05;76.10;100969.19;1916756;75;21079;-67
2022/03/05 01:18:08;;;;;;;21.35;9.90;;;;;;;2.10;76.11;100976.52;1916770;75;21521;-67
2022/03/05 01:20:37;;;;;;;20.90;9.88;;;;;;;2.11;75.94;100973.93;1916504;75;21469;-69
2022/03/05 01:23:06;;;;;;;21.62;10.50;;;;;;;2.16;75.95;100979.14;1916789;73;21425;-66
2022/03/05 01:25:35;;;;;;;23.00;11.88;;;;;;;2.20;75.95;100969.17;1916647;75;21120;-66
2022/03/05 01:28:04;;;;;;;19.70;8.80;;;;;;;2.27;75.89;100973.50;1916661;75;21035;-65
2022/03/05 01:30:34;;;;;;;15.23;6.95;;;;;;;2.31;75.81;100970.02;1916833;74;21023;-65
2022/03/05 01:33:03;;;;;;;15.28;7.42;;;;;;;2.36;75.78;100971.73;1916661;75;21461;-64
2022/03/05 01:35:31;;;;;;;15.70;6.83;;;;;;;2.39;75.72;100969.14;1916812;75;21147;-64
2022/03/05 01:38:00;;;;;;;18.25;9.13;;;;;;;2.41;75.66;100973.46;1916775;75;21100;-63
2022/03/05 01:40:30;;;;;;;12.85;4.22;;;;;;;2.41;75.57;100976.50;1916609;75;21069;-68
2022/03/05 01:42:59;;;;;;;16.15;7.53;;;;;;;2.37;75.53;100972.19;1916792;75;21063;-65
2022/03/05 01:45:30;;;;;;;12.05;5.25;;;;;;;2.34;75.43;100978.67;1916659;75;21101;-64
2022/03/05 01:47:59;;;;;;;16.90;7.90;;;;;;;2.27;75.44;100970.90;1916777;75;21127;-64
2022/03/05 01:50:29;;;;;;;16.52;8.63;;;;;;;2.24;75.58;100981.28;1916950;74;20994;-65
2022/03/05 01:52:58;;;;;;;17.15;7.83;;;;;;;2.22;75.60;100978.27;1917105;74;21111;-64
2022/03/05 01:55:27;;;;;;;21.62;8.53;;;;;;;2.18;75.56;100976.10;1916895;75;20995;-64
2022/03/05 01:57:56;;;;;;;16.50;8.65;;;;;;;2.16;75.54;100983.03;1916619;75;21567;-64
2022/03/05 02:00:25;;;;;;;17.20;9.73;;;;;;;2.17;75.58;100986.05;1921573;72;21449;-65
2022/03/05 02:02:53;;;;;;;17.40;7.42;;;;;;;2.19;75.59;100983.02;1942794;74;21093;-64
2022/03/05 02:05:23;;;;;;;17.62;8.10;;;;;;;2.20;75.66;100982.16;1942840;74;21054;-64
2022/03/05 02:07:52;;;;;;;13.98;6.67;;;;;;;2.23;75.72;100989.97;1942991;74;21409;-63
2022/03/05 02:10:21;;;;;;;17.00;7.25;;;;;;;2.25;75.87;100993.42;1942738;74;21485;-62
2022/03/05 02:12:50;;;;;;;17.20;8.03;;;;;;;2.28;75.89;100996.44;1942904;73;21105;-63
2022/03/05 02:15:19;;;;;;;14.98;6.72;;;;;;;2.29;75.79;101002.94;1942973;74;21000;-62
2022/03/05 02:17:47;;;;;;;15.32;6.67;;;;;;;2.30;75.77;101004.66;1942892;74;21043;-62
2022/03/05 02:20:16;;;;;;;17.45;6.53;;;;;;;2.30;75.67;101012.89;1942715;74;21140;-61
2022/03/05 02:22:45;;;;;;;13.50;4.92;;;;;;;2.29;75.62;101004.69;1942763;74;21117;-61
2022/03/05 02:25:13;;;;;;;14.35;6.50;;;;;;;2.28;75.66;101006.39;1942847;74;21176;-63
2022/03/05 02:27:44;;;;;;;13.55;6.05;;;;;;;2.27;75.60;101004.68;1942750;73;21062;-62
2022/03/05 02:30:13;;;;;;;14.28;5.83;;;;;;;2.25;75.66;101006.83;1942715;74;21158;-66
2022/03/05 02:32:42;;;;;;;14.90;6.80;;;;;;;2.21;75.71;101003.36;1942876;74;21451;-64
2022/03/05 02:35:11;;;;;;;13.22;5.90;;;;;;;2.18;75.71;101003.38;1942685;74;21031;-66
2022/03/05 02:37:39;;;;;;;11.65;5.22;;;;;;;2.15;75.68;101002.52;1942950;74;21120;-65
2022/03/05 02:40:09;;;;;;;16.15;6.42;;;;;;;2.12;75.64;101007.26;1942932;74;21055;-64
2022/03/05 02:42:37;;;;;;;18.35;7.00;;;;;;;2.11;75.64;101004.25;1942964;74;21097;-67
2022/03/05 02:45:07;;;;;;;13.38;6.10;;;;;;;2.14;75.82;101006.86;1945725;74;21113;-64
2022/03/05 02:47:37;;;;;;;14.15;5.87;;;;;;;2.23;75.90;101009.45;1942901;74;21446;-63
2022/03/05 02:50:06;;;;;;;11.78;6.22;;;;;;;2.35;75.96;101011.61;1942960;74;21031;-66
2022/03/05 02:52:35;;;;;;;14.55;6.03;;;;;;;2.43;75.93;100999.45;1942914;74;21007;-63
2022/03/05 02:55:04;;;;;;;13.40;5.85;;;;;;;2.53;75.86;101005.09;1942822;74;21031;-66
2022/03/05 02:57:32;;;;;;;18.42;6.22;;;;;;;2.59;75.76;101007.66;1943085;74;21113;-66
2022/03/05 03:00:01;;;;;;;14.40;6.50;;;;;;;2.65;75.73;101014.14;1943779;74;21081;-65
2022/03/05 03:02:30;;;;;;;15.60;6.22;;;;;;;2.70;75.66;101020.20;1925834;74;21054;-63
2022/03/05 03:04:58;;;;;;;12.80;5.70;;;;;;;2.70;75.60;101009.80;1916722;73;20999;-69
2022/03/05 03:07:27;;;;;;;17.52;6.12;;;;;;;2.70;75.54;101016.30;1916863;75;21027;-65
2022/03/05 03:09:58;;;;;;;13.18;6.10;;;;;;;2.67;75.53;101012.43;1916741;75;21023;-65
2022/03/05 03:12:29;;;;;;;13.78;5.83;;;;;;;2.70;75.67;101024.55;1916570;74;21006;-65
2022/03/05 03:14:58;;;;;;;15.45;5.90;;;;;;;2.73;75.69;101015.86;1916956;75;21034;-66
2022/03/05 03:17:26;;;;;;;15.10;7.45;;;;;;;2.76;75.63;101018.02;1916612;75;21046;-63
2022/03/05 03:19:55;;;;;;;18.05;9.25;;;;;;;2.79;75.56;101011.97;1916720;75;21042;-64
2022/03/05 03:22:24;;;;;;;13.88;7.58;;;;;;;2.82;75.72;101011.94;1916776;75;21030;-64
2022/03/05 03:24:52;;;;;;;15.48;8.15;;;;;;;2.87;75.62;101015.39;1916824;75;21100;-63
2022/03/05 03:27:21;;;;;;;18.17;8.08;;;;;;;2.90;75.53;101025.80;1916686;75;21103;-64
2022/03/05 03:29:50;;;;;;;18.10;9.30;;;;;;;2.93;75.47;101028.81;1916586;75;21155;-64
2022/03/05 03:32:19;;;;;;;17.98;7.60;;;;;;;2.96;75.38;101032.27;1916700;75;21441;-73
2022/03/05 03:34:48;;;;;;;12.90;6.50;;;;;;;2.95;75.33;101037.06;1916755;75;21062;-68
2022/03/05 03:37:17;;;;;;;19.48;7.42;;;;;;;2.93;75.19;101032.27;1916660;75;21493;-71
2022/03/05 03:39:46;;;;;;;13.03;6.12;;;;;;;2.88;75.04;101032.75;1916688;75;21469;-70
2022/03/05 03:42:15;;;;;;;12.45;6.55;;;;;;;2.81;75.06;101029.73;1916243;75;21150;-67
2022/03/05 03:44:44;;;;;;;14.15;5.92;;;;;;;2.74;75.31;101027.56;1926685;74;21525;-65
2022/03/05 03:47:12;;;;;;;14.85;6.75;;;;;;;2.68;75.28;101023.24;1914376;74;21038;-65
2022/03/05 03:49:41;;;;;;;16.70;6.62;;;;;;;2.60;75.23;101021.11;1914377;75;21039;-66
2022/03/05 03:52:10;;;;;;;15.43;6.42;;;;;;;2.52;75.32;101025.44;1914150;75;21094;-65
2022/03/05 03:54:38;;;;;;;15.05;5.83;;;;;;;2.48;75.42;101026.31;1914302;74;21046;-66
2022/03/05 03:57:07;;;;;;;13.83;5.72;;;;;;;2.46;75.52;101030.20;1914045;74;21132;-66
2022/03/05 03:59:36;;;;;;;14.85;6.60;;;;;;;2.46;75.56;101035.85;1915832;74;21075;-65
2022/03/05 04:02:05;;;;;;;15.20;5.78;;;;;;;2.44;75.52;101037.59;1930586;73;21514;-63
2022/03/05 04:04:34;;;;;;;15.90;6.15;;;;;;;2.42;75.48;101043.22;1912188;75;21047;-63
2022/03/05 04:09:49;;;;;;;13.18;5.20;;;;;;;2.41;75.51;101041.03;1909544;75;21109;-65
2022/03/05 04:12:18;;;;;;;13.43;5.50;;;;;;;2.46;75.53;101031.51;1919678;75;21527;-66
2022/03/05 04:14:47;;;;;;;14.10;5.70;;;;;;;2.53;75.54;101040.17;1919714;75;21039;-67
2022/03/05 04:17:16;;;;;;;15.85;6.30;;;;;;;2.58;75.44;101036.25;1912635;74;21027;-61
2022/03/05 04:19:45;;;;;;;17.20;6.33;;;;;;;2.64;75.40;101038.42;1903854;75;21505;-62
2022/03/05 04:22:14;;;;;;;15.85;5.87;;;;;;;2.74;75.42;101030.61;1903977;75;21626;-63
2022/03/05 04:24:46;;;;;;;12.93;5.67;;;;;;;2.84;75.39;101031.89;1903996;75;21482;-63
2022/03/05 04:27:26;;;;;;;10.10;4.37;;;;;;;2.95;75.31;101040.97;1904457;75;21079;-66
2022/03/05 04:29:52;;;;;;;15.13;6.28;;;;;;;3.06;75.25;101033.99;1906219;74;21043;-65
2022/03/05 04:32:22;;;;;;;10.13;4.25;;;;;;;3.15;75.10;101041.32;1906799;74;21528;-66
2022/03/05 04:34:51;;;;;;;12.10;5.00;;;;;;;3.31;75.11;101044.30;1907540;74;21079;-67
2022/03/05 04:37:20;;;;;;;14.78;6.40;;;;;;;3.51;74.87;101049.41;1904345;74;21156;-62
2022/03/05 04:39:49;;;;;;;16.27;6.55;;;;;;;3.57;74.62;101052.42;1904860;75;21067;-62
2022/03/05 04:42:17;;;;;;;11.93;5.65;;;;;;;3.56;74.44;101048.08;1904727;75;21116;-64
2022/03/05 04:44:46;;;;;;;13.48;6.08;;;;;;;3.51;74.30;101055.06;1905194;74;21106;-63
2022/03/05 04:47:15;;;;;;;11.65;5.08;;;;;;;3.47;74.30;101060.28;1908629;75;21486;-64
2022/03/05 04:49:44;;;;;;;11.28;4.85;;;;;;;3.59;74.56;101060.64;1917882;74;21445;-64
2022/03/05 04:52:20;;;;;;;14.38;5.92;;;;;;;3.81;74.69;101060.09;1905994;75;21120;-62
2022/03/05 04:54:47;;;;;;;12.73;5.92;;;;;;;3.98;74.58;101057.81;1898387;75;21469;-63
2022/03/05 04:57:15;;;;;;;12.07;5.42;;;;;;;4.07;74.24;101056.45;1908411;74;21060;-64
2022/03/05 04:59:44;;;;;;;11.40;5.00;;;;;;;4.10;74.10;101061.65;1919417;75;21120;-66
2022/03/05 05:02:13;;;;;;;10.63;4.65;;;;;;;4.10;73.96;101060.80;1919544;75;21063;-61
2022/03/05 05:04:42;;;;;;;11.55;4.37;;;;;;;4.21;74.05;101060.27;1949705;73;21070;-63
2022/03/05 05:07:10;;;;;;;12.75;4.92;;;;;;;4.46;74.10;101060.91;1951100;73;21075;-63
2022/03/05 05:09:40;;;;;;;8.40;4.12;;;;;;;4.90;73.96;101068.76;1950682;73;21051;-63
2022/03/05 05:12:10;;;;;;;8.58;4.12;;;;;;;5.41;74.18;101069.05;1925962;73;21104;-64
2022/03/05 05:14:39;;;;;;;8.50;4.03;;;;;;;5.94;74.33;101074.45;1918861;75;21092;-64
2022/03/05 05:17:07;;;;;;;8.45;4.85;;;;;;;6.50;74.32;101078.40;1918934;75;21116;-64
2022/03/05 05:19:36;;;;;;;8.65;4.35;;;;;;;7.03;73.73;101077.48;1919118;75;21007;-63
2022/03/05 05:22:07;;;;;;;7.83;3.90;;;;;;;7.48;73.20;101072.21;1946166;72;21061;-65
2022/03/05 05:24:37;;;;;;;9.18;4.15;;;;;;;8.01;72.80;101073.25;1946431;72;21023;-61
2022/03/05 05:27:06;;;;;;;8.88;4.45;;;;;;;8.55;72.33;101061.48;1945197;74;21028;-61
2022/03/05 05:29:35;;;;;;;11.30;4.20;;;;;;;9.05;71.44;101073.72;1945102;74;21031;-62
2022/03/05 05:32:04;;;;;;;8.70;4.58;;;;;;;9.56;70.86;101077.55;1945225;74;21482;-62
2022/03/05 05:34:33;;;;;;;9.23;4.10;;;;;;;10.13;70.09;101073.19;1945236;74;21027;-62
2022/03/05 05:37:01;;;;;;;9.80;4.05;;;;;;;10.58;67.78;101077.87;1945800;73;21034;-66
2022/03/05 05:39:30;;;;;;;7.40;4.35;;;;;;;10.84;66.75;101069.08;1948451;74;20991;-66
2022/03/05 05:41:59;;;;;;;8.90;3.85;;;;;;;10.89;64.99;101076.84;1948470;74;20983;-67
2022/03/05 05:44:27;;;;;;;7.03;3.72;;;;;;;10.38;64.06;101079.42;1948523;74;21043;-67
2022/03/05 05:46:56;;;;;;;7.62;3.85;;;;;;;10.10;62.83;101092.55;1948407;74;21019;-67
2022/03/05 05:49:25;;;;;;;7.67;2.67;;;;;;;10.42;62.31;101067.87;1948318;74;20990;-68
2022/03/05 05:51:53;;;;;;;7.00;3.20;;;;;;;10.65;62.01;101083.34;1949064;73;21031;-66
2022/03/05 05:54:23;;;;;;;9.15;3.35;;;;;;;10.90;61.43;101074.59;1951133;73;21108;-64
2022/03/05 05:56:52;;;;;;;7.28;3.17;;;;;;;11.09;61.73;101090.17;1951037;73;21524;-62
2022/03/05 05:59:21;;;;;;;6.78;2.77;;;;;;;11.40;61.78;101089.06;1951258;73;20999;-62
2022/03/05 06:01:49;;;;;;;5.80;2.98;;;;;;;12.02;61.46;101077.03;1950377;73;21537;-61
2022/03/05 06:04:18;;;;;;;6.35;3.30;;;;;;;12.41;60.61;101079.45;1948017;73;21140;-62
2022/03/05 06:06:47;;;;;;;6.45;3.10;;;;;;;12.50;60.30;101089.63;1947895;74;21477;-61
2022/03/05 06:09:16;;;;;;;6.45;3.10;;;;;;;12.87;58.85;101081.47;1947730;74;21394;-61
2022/03/05 06:11:44;;;;;;;5.50;3.10;;;;;;;12.85;58.73;101096.07;1947837;74;20990;-62
2022/03/05 06:14:13;;;;;;;5.62;2.37;;;;;;;12.57;58.31;101094.22;1916720;74;21042;-62
2022/03/05 06:16:42;;;;;;;8.15;2.70;;;;;;;12.41;56.01;101093.98;1947849;74;21110;-61
2022/03/05 06:19:10;;;;;;;7.90;3.17;;;;;;;12.66;56.38;101089.39;1947829;74;21014;-61
2022/03/05 06:21:39;;;;;;;7.37;3.70;;;;;;;13.23;56.56;101092.23;1947870;74;20999;-62
2022/03/05 06:24:08;;;;;;;6.42;3.22;;;;;;;13.99;56.42;101086.16;1923158;73;21139;-61
2022/03/05 06:26:37;;;;;;;6.67;3.15;;;;;;;14.35;55.45;101092.78;1927709;74;21052;-63
2022/03/05 06:29:06;;;;;;;7.53;3.27;;;;;;;14.00;55.31;101094.47;1913799;75;21413;-64
2022/03/05 06:31:35;;;;;;;7.03;3.20;;;;;;;13.71;55.15;101094.07;1913866;74;21444;-62
2022/03/05 06:34:04;;;;;;;5.08;3.02;;;;;;;13.36;55.32;101081.99;1924227;74;21028;-63
2022/03/05 06:36:33;;;;;;;8.70;4.03;;;;;;;12.63;55.06;101084.23;1925905;73;21043;-63
2022/03/05 06:39:02;;;;;;;6.37;3.45;;;;;;;11.95;55.26;101093.59;1951158;73;21163;-61
2022/03/05 06:41:30;;;;;;;5.87;3.50;;;;;;;11.36;55.31;101095.34;1951253;73;21116;-63
2022/03/05 06:43:59;;;;;;;6.37;3.52;;;;;;;10.87;55.64;101101.06;1950774;73;21141;-62
2022/03/05 06:46:28;;;;;;;8.88;2.80;;;;;;;10.74;55.87;101104.11;1948091;74;21042;-60
2022/03/05 06:48:57;;;;;;;5.65;2.65;;;;;;;11.31;55.44;101089.41;1949573;73;21067;-64
2022/03/05 06:51:26;;;;;;;5.22;2.65;;;;;;;11.33;55.35;101087.56;1951325;73;21043;-59
2022/03/05 06:53:55;;;;;;;4.75;2.72;;;;;;;12.02;54.76;101087.59;1951083;73;21051;-60
2022/03/05 06:56:24;;;;;;;4.15;2.30;;;;;;;13.07;53.45;101083.25;1923039;73;21030;-60
2022/03/05 06:58:52;;;;;;;5.83;2.40;;;;;;;13.42;52.65;101077.73;1913828;74;21097;-65
2022/03/05 07:01:22;;;;;;;3.75;2.17;;;;;;;13.96;49.74;101080.99;1913838;75;21015;-63
2022/03/05 07:03:50;;;;;;;4.83;2.75;;;;;;;14.06;48.61;101082.28;1941930;74;21442;-65
2022/03/05 07:06:19;;;;;;;5.47;2.58;;;;;;;14.46;48.29;101083.84;1938932;74;21003;-64
2022/03/05 07:08:48;;;;;;;4.95;1.95;;;;;;;15.16;47.77;101085.61;1942103;74;21039;-65
2022/03/05 07:11:17;;;;;;;3.83;2.20;;;;;;;14.16;45.64;101072.09;1942363;74;21511;-64
2022/03/05 07:13:46;;;;;;;4.42;2.58;;;;;;;14.47;46.12;101087.33;1942330;74;21030;-70
2022/03/05 07:16:14;;;;;;;5.75;3.05;;;;;;;15.32;45.21;101087.84;1938800;74;21027;-70
2022/03/05 07:18:43;;;;;;;8.03;3.47;;;;;;;15.95;44.01;101079.60;1928085;74;21488;-67
2022/03/05 07:21:12;;;;;;;5.85;3.37;;;;;;;15.56;44.85;101091.45;1936328;74;21517;-69
2022/03/05 07:23:40;;;;;;;3.85;2.52;;;;;;;15.45;45.07;101077.43;1936005;74;21116;-66
2022/03/05 07:26:09;;;;;;;6.22;2.98;;;;;;;15.41;44.41;101079.39;1936019;74;21046;-66
2022/03/05 07:28:38;;;;;;;6.60;3.15;;;;;;;15.89;44.18;101078.63;1936346;74;21036;-67
2022/03/05 07:34:47;;;;;;;4.97;2.45;;;;;;;16.21;44.12;101069.70;1932401;74;21059;-68
2022/03/05 07:37:16;;;;;;;5.37;2.67;;;;;;;14.67;45.34;101073.97;1932755;74;21028;-67
2022/03/05 07:39:45;;;;;;;6.70;3.00;;;;;;;13.72;46.04;101074.59;1936009;74;21531;-68
2022/03/05 07:42:13;;;;;;;5.08;2.72;;;;;;;14.41;45.21;101067.78;1936570;74;21086;-63
2022/03/05 07:44:43;;;;;;;3.85;2.10;;;;;;;15.73;44.26;101069.28;1942230;74;21528;-63
2022/03/05 07:47:11;;;;;;;4.85;2.27;;;;;;;15.68;44.43;101077.52;1942233;74;21019;-64
2022/03/05 07:49:40;;;;;;;5.37;2.47;;;;;;;15.65;42.96;101067.06;1942384;74;21007;-65
2022/03/05 07:52:09;;;;;;;3.90;2.45;;;;;;;15.39;43.53;101070.66;1942302;74;21132;-63
2022/03/05 07:54:37;;;;;;;4.28;2.45;;;;;;;15.51;43.08;101082.88;1941502;74;21022;-66
2022/03/05 07:57:06;;;;;;;4.53;2.27;;;;;;;15.88;42.07;101078.23;1942225;74;21019;-65
2022/03/05 07:59:35;;;;;;;4.85;2.30;;;;;;;16.87;41.15;101066.78;1941952;74;20994;-65
2022/03/05 08:02:05;;;;;;;5.03;2.50;;;;;;;16.31;40.60;101046.58;1914556;75;21171;-64
2022/03/05 08:04:34;;;;;;;5.70;2.67;;;;;;;15.53;41.23;101077.01;1916809;73;21132;-65
2022/03/05 08:07:04;;;;;;;3.42;1.90;;;;;;;15.10;41.87;101085.47;1876027;76;21136;-65
2022/03/05 08:09:33;;;;;;;5.95;1.92;;;;;;;14.76;42.35;101079.75;1876152;76;21085;-64
2022/03/05 08:12:03;;;;;;;4.30;2.10;;;;;;;14.02;43.00;101083.37;1894912;75;21022;-64
2022/03/05 08:14:32;;;;;;;3.58;2.02;;;;;;;13.77;43.24;101087.63;1902737;75;21020;-68
2022/03/05 08:17:00;;;;;;;4.87;2.15;;;;;;;14.72;42.63;101072.42;1904559;75;21024;-64
2022/03/05 08:19:29;;;;;;;5.67;2.20;;;;;;;15.56;40.82;101065.76;1903831;75;20991;-65
2022/03/05 08:21:58;;;;;;;5.20;2.12;;;;;;;15.76;40.12;101069.16;1901965;75;21118;-64
2022/03/05 08:24:26;;;;;;;3.35;2.02;;;;;;;16.35;39.62;101066.70;1901405;75;21078;-62
2022/03/05 08:26:55;;;;;;;3.50;2.30;;;;;;;16.96;39.02;101067.08;1901262;75;21120;-66
2022/03/05 08:29:24;;;;;;;5.20;3.08;;;;;;;16.60;38.79;101060.34;1901206;75;21099;-65
2022/03/05 08:31:52;;;;;;;7.83;2.83;;;;;;;16.78;38.73;101067.70;1901751;75;21445;-69
2022/03/05 08:34:21;;;;;;;2.92;1.92;;;;;;;17.72;38.38;101069.94;1905195;75;21039;-70
2022/03/05 08:36:50;;;;;;;4.45;2.42;;;;;;;17.77;37.63;101070.95;1906467;75;21454;-60
2022/03/05 08:39:19;;;;;;;5.00;2.80;;;;;;;17.56;35.65;101061.20;1906570;75;21039;-70
2022/03/05 08:41:48;;;;;;;4.55;2.40;;;;;;;17.57;35.70;101056.24;1906499;75;21024;-66
2022/03/05 08:44:17;;;;;;;7.75;2.42;;;;;;;17.18;36.53;101056.46;1906554;75;21085;-65
2022/03/05 08:46:45;;;;;;;5.28;2.92;;;;;;;17.22;36.58;101067.77;1906436;75;21470;-63
2022/03/05 08:49:14;;;;;;;4.50;2.37;;;;;;;17.10;36.90;101073.38;1906563;75;21137;-64
2022/03/05 08:51:44;;;;;;;4.92;2.75;;;;;;;17.38;36.31;101078.33;1901573;75;20998;-66
2022/03/05 08:54:12;;;;;;;6.75;2.25;;;;;;;16.69;35.98;101081.55;1897614;75;21034;-66
2022/03/05 08:56:41;;;;;;;3.67;1.82;;;;;;;15.62;37.82;101088.45;1897859;74;21770;-66
2022/03/05 08:59:10;;;;;;;3.83;1.95;;;;;;;14.76;38.65;101082.41;1903120;75;21019;-68
2022/03/05 09:01:38;;;;;;;11.12;2.30;;;;;;;14.01;39.56;101087.78;1896866;75;21203;-66
2022/03/05 09:04:07;;;;;;;3.60;1.87;;;;;;;13.32;40.19;101097.14;1897012;74;21102;-62
2022/03/05 09:06:36;;;;;;;3.20;1.98;;;;;;;12.81;40.59;101092.31;1909868;73;21254;-62
2022/03/05 09:09:06;;;;;;;3.33;2.08;;;;;;;12.45;40.97;101099.09;1913595;74;21522;-77
2022/03/05 09:11:37;;;;;;;4.03;1.80;;;;;;;12.23;41.73;101085.90;1914506;74;21159;-62
2022/03/05 09:14:06;;;;;;;6.12;2.95;;;;;;;12.13;42.01;101084.53;1912406;74;21085;-64
2022/03/05 09:16:39;;;;;;;4.87;2.67;;;;;;;12.19;42.05;101095.31;1919013;74;21518;-69
2022/03/05 09:19:12;;;;;;;5.70;2.77;;;;;;;12.40;42.18;101105.48;1916087;74;21013;-71
2022/03/05 09:21:41;;;;;;;3.75;1.85;;;;;;;12.62;42.15;101089.13;1913931;74;21440;-71
2022/03/05 09:24:10;;;;;;;3.25;1.82;;;;;;;12.32;42.35;101106.65;1922076;74;21017;-63
2022/03/05 09:26:39;;;;;;;3.92;2.12;;;;;;;12.06;42.53;101101.09;1917295;74;21444;-61
2022/03/05 09:29:07;;;;;;;5.97;2.27;;;;;;;11.84;42.83;101098.84;1916092;74;21507;-70
2022/03/05 09:31:36;;;;;;;2.70;1.60;;;;;;;11.57;42.83;101105.58;1921432;74;21139;-64
2022/03/05 09:34:05;;;;;;;3.55;1.80;;;;;;;11.45;43.32;101117.41;1915060;74;21041;-66
2022/03/05 09:36:34;;;;;;;8.10;3.25;;;;;;;11.42;43.66;101117.55;1915610;74;21044;-66
2022/03/05 09:39:03;;;;;;;4.78;2.60;;;;;;;11.82;43.61;101105.48;1916482;74;21104;-74
2022/03/05 09:41:32;;;;;;;3.67;1.98;;;;;;;11.89;43.58;101120.16;1922358;71;21255;-71
2022/03/05 09:44:01;;;;;;;7.08;2.02;;;;;;;11.87;43.21;101107.49;1926851;74;21107;-63
2022/03/05 09:46:31;;;;;;;3.37;2.08;;;;;;;12.47;42.63;101106.48;1932016;73;21115;-63
2022/03/05 09:49:01;;;;;;;4.17;2.20;;;;;;;12.77;42.18;101103.48;1922167;74;21464;-64
2022/03/05 09:51:29;;;;;;;6.58;3.45;;;;;;;12.65;41.70;101107.51;1922142;74;21049;-69
2022/03/05 09:53:58;;;;;;;8.45;4.28;;;;;;;12.78;41.67;101114.89;1922048;75;21071;-64
2022/03/05 09:56:28;;;;;;;4.97;2.80;;;;;;;12.71;41.53;101108.56;1922194;74;21458;-66
2022/03/05 09:58:58;;;;;;;5.45;3.27;;;;;;;13.60;41.16;101110.91;1922397;74;21043;-75
2022/03/05 10:01:26;;;;;;;4.75;3.02;;;;;;;15.10;38.69;101111.14;1925525;74;21058;-64
2022/03/05 10:03:56;;;;;;;6.78;3.45;;;;;;;15.15;38.08;101107.31;1915979;73;21038;-63
2022/03/05 10:06:29;;;;;;;6.72;3.45;;;;;;;15.63;38.55;101108.77;1911179;74;21023;-63
2022/03/05 10:08:59;;;;;;;2.90;1.80;;;;;;;15.49;38.59;101084.76;1924454;74;21172;-62
2022/03/05 10:11:36;;;;;;;4.10;1.62;;;;;;;14.72;38.35;101092.30;1925220;74;21457;-62
2022/03/05 10:14:17;;;;;;;8.30;3.85;;;;;;;13.66;39.00;101102.68;1887331;76;21044;-63
2022/03/05 10:16:46;;;;;;;6.20;3.10;;;;;;;13.10;39.90;101111.73;1920821;74;21084;-65
2022/03/05 10:19:23;;;;;;;6.35;3.10;;;;;;;13.59;39.98;101103.89;1921283;74;21056;-65
2022/03/05 10:22:06;;;;;;;8.90;3.87;;;;;;;14.69;39.00;101095.58;1923032;74;21151;-64
2022/03/05 10:24:40;;;;;;;6.42;3.20;;;;;;;15.82;37.65;101098.89;1889614;76;21070;-59
2022/03/05 10:27:11;;;;;;;4.55;2.27;;;;;;;15.71;37.84;101086.62;1904382;74;21109;-57
2022/03/05 10:29:40;;;;;;;10.55;4.33;;;;;;;16.38;37.00;101101.94;1898341;74;21035;-59
2022/03/05 10:32:11;;;;;;;8.25;4.53;;;;;;;16.74;36.73;101090.08;1921302;74;21144;-59
2022/03/05 10:34:51;;;;;;;3.83;2.20;;;;;;;16.33;36.86;101093.84;1919482;73;21082;-60
2022/03/05 10:37:21;;;;;;;3.35;2.00;;;;;;;16.03;37.08;101089.34;1872984;75;21089;-59
2022/03/05 10:39:52;;;;;;;3.60;1.90;;;;;;;16.35;36.52;101070.69;1919570;73;21002;-60
2022/03/05 10:42:23;;;;;;;5.97;2.45;;;;;;;17.04;35.48;101073.28;1930792;74;21058;-61
2022/03/05 10:45:11;;;;;;;2.70;1.80;;;;;;;17.25;34.99;101086.22;1933036;74;21124;-59
2022/03/05 10:47:42;;;;;;;4.85;2.50;;;;;;;17.44;33.71;101039.34;1911676;74;21106;-61
2022/03/05 10:50:22;;;;;;;7.40;3.08;;;;;;;16.35;35.07;101070.69;1876378;76;21039;-66
2022/03/05 10:52:53;;;;;;;6.62;3.47;;;;;;;15.68;35.32;101078.84;1926504;74;21019;-67
2022/03/05 10:55:25;;;;;;;5.03;2.08;;;;;;;14.80;36.39;101084.80;1922792;74;21032;-64
2022/03/05 10:58:17;;;;;;;4.87;2.08;;;;;;;14.02;37.28;101068.80;1929153;74;21036;-69
2022/03/05 11:00:49;;;;;;;4.20;2.50;;;;;;;13.38;38.37;101079.28;1923560;73;21129;-68
2022/03/05 11:03:16;;;;;;;3.83;2.05;;;;;;;12.84;39.05;101089.55;1922771;74;21149;-68
2022/03/05 11:05:46;;;;;;;5.15;2.33;;;;;;;12.58;39.74;101083.59;1916442;74;21559;-68
2022/03/05 11:08:17;;;;;;;2.75;1.77;;;;;;;13.62;39.38;101088.73;1903825;74;21545;-68
2022/03/05 11:10:48;;;;;;;3.75;1.80;;;;;;;14.89;38.16;101079.50;1886869;76;21053;-67
2022/03/05 11:13:17;;;;;;;2.10;1.50;;;;;;;15.69;36.37;101084.52;1883031;76;21146;-64
2022/03/05 11:15:46;;;;;;;6.15;2.77;;;;;;;16.48;35.67;101088.95;1882855;76;21544;-64
2022/03/05 11:18:15;;;;;;;7.33;2.40;;;;;;;17.01;34.54;101076.12;1882902;76;21475;-65
2022/03/05 11:20:45;;;;;;;3.47;2.05;;;;;;;17.13;34.49;101075.38;1882838;76;21068;-61
2022/03/05 11:23:15;;;;;;;3.67;1.72;;;;;;;17.44;34.34;101080.60;1899137;75;21039;-60
2022/03/05 11:25:44;;;;;;;3.45;1.80;;;;;;;17.59;32.83;101070.31;1912943;75;21120;-60
2022/03/05 11:28:15;;;;;;;3.85;2.12;;;;;;;16.85;31.36;101068.69;1912820;75;21523;-60
2022/03/05 11:30:46;;;;;;;4.00;2.12;;;;;;;16.72;32.90;101080.49;1912349;75;21110;-60
2022/03/05 11:33:23;;;;;;;3.25;1.77;;;;;;;16.68;33.57;101081.63;1912913;75;21109;-61
2022/03/05 11:35:53;;;;;;;2.35;1.52;;;;;;;15.89;34.59;101079.95;1912950;75;21071;-59
2022/03/05 11:38:39;;;;;;;4.83;2.30;;;;;;;15.04;35.60;101081.34;1911542;75;21500;-62
2022/03/05 11:41:19;;;;;;;3.45;1.95;;;;;;;14.49;36.43;101085.46;1912840;75;21051;-62